KCMH Airport Diagram

We have created a template for each of the higher traffic airports in the vZID airspace. They include KCMH, KCRW, KCVG, KDAY, KIND, KLEX and KSDF. You wil find usefull information including the airport diagram, weather, and specific airport procedures.

KCMH Weather

[Source: ADDS]
METAR
KCMH 300151Z 06009KT 10SM SCT160 SCT190 BKN250 12/02 A3012 RMK AO2 SLP201 T01170022 =
TAF
KCMH 292339Z 3000/3024 06008KT P6SM SCT250 FM300600 07008KT P6SM BKN100 FM301300 11011KT P6SM BKN060 FM301600 14013G22KT P6SM BKN050 FM302100 18013G22KT P6SM BKN070 OVC250 FM302300 15009KT P6SM OVC070 =
JSN Epic template designed by JoomlaShine.com